Hicks Airfield Weather

No METAR data is available for Hicks Airfield, and nearby Alliance Airport's METAR data is commonly used by area pilots. Weather infomation is also available on 126.925 mhz.

  • Current KAFW METAR
    (5.8nm NE) VFR
    Raw Text: KAFW 170453Z 17007KT 10SM CLR 28/19 A3002 RMK AO2 SLP147 T02830189
    Wind: 170° @ 7kts
    Visibility: 10.0sm
    Clouds (AGL): CLR
    Temperature: 28.3°C
    Dew Point: 18.9°C
    Altimeter: 30.02 inHg
  • Current KAFW TAF
    (5.8nm NE)
    Raw Text: KAFW 170252Z 1703/1724 16006KT P6SM SKC